صافي مع بعض السحب المنخفضة
سماء صافية دون سحب
صافي مع بعض السحب الرقيقة
صافي مع بعض الغيوم المنخفضة والسحب الرقيقة
غائم جزئيا مع بعض السحب الرقيقة
غائم جزئيا مع بعض السحب الرقيقة
غائم جزئيا مع بعض السحب الرقيقة
غائم جزئيا مع بعض السحب الرقيقة
غائم جزئيا مع بعض السحب الرقيقة
(°C)
27°
27°
25°
25°
23°
23°
22°
22°
21°
21°
20°
20°
19°
19°
18°
18°
17°
17°
(°C)
28°
26°
24°
22°
21°
20°
19°
19°
18°
شمال شرقي
شمال شرقي
شمال شرقي
شمال شرقي
شمال شرقي
شمال شرقي
شمال شرقي
شمال شرقي
شمال شرقي
(km/h)
10-29
9-29
8-28
8-21
7-18
6-16
6-15
6-14
6-13
(ميليمتر)
0
0
0
0
0
0
0
0
0
(%)
0
0
0
0
0
0
0
0
0

مستوى ارتفاع الشمس

/ 9.5°
sun-icon
UV 5
05:00
20:44
القمر المحدب (154°)
19:55
02:00

متر لHvozdnica (LZZI)

الوقت الشروط درجة الحرارة/
نقطة الندى
رياح مجال رؤية حالة الطقس غيوم الضغط تغيير خام
VFR 27°C / 17°C 40º 7kt 9700m - Few Clouds 6000ft 1016 - LZZI 191700Z 04007KT 9999 FEW060 27/17 Q1016
VFR 27°C / 16°C 30º variable 360º to 060º 7kt 9700m - Few Clouds 6000ft 1016 - LZZI 191630Z 03007KT 360V060 9999 FEW060 27/16 Q1016
VFR 28°C / 16°C 40º variable 010º to 070º 7kt 9700m - Few Clouds 6000ft 1016 - LZZI 191600Z 04007KT 010V070 9999 FEW060 28/16 Q1016
VFR 28°C / 16°C 50º 6kt 9700m - Few Clouds 5900ft 1017 - LZZI 191530Z 05006KT 9999 FEW059 28/16 Q1017
VFR 27°C / 17°C 60º 7kt 9700m - Few Clouds 5900ft 1017 - LZZI 191500Z 06007KT 9999 FEW059 27/17 Q1017
VFR 29°C / 16°C 40º variable 350º to 080º 7kt 9700m - Few Clouds 6100ft 1017 - LZZI 191430Z 04007KT 350V080 9999 FEW061 29/16 Q1017
VFR 28°C / 16°C 30º variable 340º to 060º 5kt 9700m - Few Clouds 6100ft 1018 - LZZI 191400Z 03005KT 340V060 9999 FEW061 28/16 Q1018
VFR 28°C / 17°C 60º variable 360º to 090º 7kt 9700m - Few Clouds 6100ft 1018 - LZZI 191330Z 06007KT 360V090 9999 FEW061 28/17 Q1018
VFR 28°C / 15°C 40º variable 010º to 090º 4kt 9700m - Few Clouds 6100ft 1018 - LZZI 191300Z 04004KT 010V090 9999 FEW061 28/15 Q1018
VFR 28°C / 16°C 50º variable 020º to 090º 5kt 9700m - Few Clouds 6000ft 1019 - LZZI 191230Z 05005KT 020V090 9999 FEW060 28/16 Q1019
VFR 28°C / 15°C 50º variable 020º to 120º 5kt 9700m - Few Clouds 5800ft 1019 - LZZI 191200Z 05005KT 020V120 9999 FEW058 28/15 Q1019
VFR 28°C / 15°C 50º variable 020º to 090º 6kt 9700m - Scattered Clouds 5200ft 1019 - LZZI 191130Z 05006KT 020V090 9999 SCT052 28/15 Q1019
VFR 28°C / 14°C 40º variable 350º to 070º 5kt 9700m - Scattered Clouds 4600ft 1019 - LZZI 191100Z 04005KT 350V070 9999 SCT046 28/14 Q1019
VFR 28°C / 16°C 90º variable 030º to 190º 3kt 9700m - Few Clouds 4100ft 1020 - LZZI 191030Z 09003KT 030V190 9999 FEW041 28/16 Q1020
VFR 27°C / 16°C 4kt 9700m - Few Clouds 4000ft 1020 - LZZI 191000Z VRB04KT 9999 FEW040 27/16 Q1020
VFR 27°C / 15°C 30º variable 320º to 060º 5kt 9700m - Few Clouds 3700ft 1020 - LZZI 190930Z 03005KT 320V060 9999 FEW037 27/15 Q1020
VFR 26°C / 15°C 50º variable 330º to 120º 4kt 9700m - Few Clouds 3600ft 1020 - LZZI 190900Z 05004KT 330V120 9999 FEW036 26/15 Q1020
VFR 26°C / 16°C 50º variable 010º to 120º 5kt 9700m - Few Clouds 3300ft 1020 - LZZI 190830Z 05005KT 010V120 9999 FEW033 26/16 Q1020
VFR 25°C / 16°C 60º 6kt 9700m - Few Clouds 3300ft 1021 - LZZI 190800Z 06006KT 9999 FEW033 25/16 Q1021
VFR 24°C / 16°C 80º variable 030º to 120º 4kt 9700m - Few Clouds 3200ft 1021 - LZZI 190730Z 08004KT 030V120 9999 FEW032 24/16 Q1021
VFR 24°C / 16°C 110º variable 050º to 140º 4kt 9700m - Clouds and Visibility OK 1021 - LZZI 190700Z 11004KT 050V140 CAVOK 24/16 Q1021
VFR 23°C / 16°C 2kt 9700m - Clouds and Visibility OK 1021 - LZZI 190630Z VRB02KT CAVOK 23/16 Q1021
VFR 20°C / 16°C 1kt 9700m - Clouds and Visibility OK 1021 - LZZI 190530Z VRB01KT CAVOK 20/16 Q1021
VFR 19°C / 15°C 1kt 9700m - Clouds and Visibility OK 1021 - LZZI 190500Z VRB01KT CAVOK 19/15 Q1021

VFR

27°C / 17°C

[أكثر]
رياح 40º 7kt
مجال رؤية 9700m
حالة الطقس -
غيوم Few Clouds 6000ft
الضغط 1016
تغيير -
خام LZZI 191700Z 04007KT 9999 FEW060 27/17 Q1016

VFR

27°C / 16°C

[أكثر]
رياح 30º variable 360º to 060º 7kt
مجال رؤية 9700m
حالة الطقس -
غيوم Few Clouds 6000ft
الضغط 1016
تغيير -
خام LZZI 191630Z 03007KT 360V060 9999 FEW060 27/16 Q1016

VFR

28°C / 16°C

[أكثر]
رياح 40º variable 010º to 070º 7kt
مجال رؤية 9700m
حالة الطقس -
غيوم Few Clouds 6000ft
الضغط 1016
تغيير -
خام LZZI 191600Z 04007KT 010V070 9999 FEW060 28/16 Q1016

VFR

28°C / 16°C

[أكثر]
رياح 50º 6kt
مجال رؤية 9700m
حالة الطقس -
غيوم Few Clouds 5900ft
الضغط 1017
تغيير -
خام LZZI 191530Z 05006KT 9999 FEW059 28/16 Q1017

VFR

27°C / 17°C

[أكثر]
رياح 60º 7kt
مجال رؤية 9700m
حالة الطقس -
غيوم Few Clouds 5900ft
الضغط 1017
تغيير -
خام LZZI 191500Z 06007KT 9999 FEW059 27/17 Q1017

VFR

29°C / 16°C

[أكثر]
رياح 40º variable 350º to 080º 7kt
مجال رؤية 9700m
حالة الطقس -
غيوم Few Clouds 6100ft
الضغط 1017
تغيير -
خام LZZI 191430Z 04007KT 350V080 9999 FEW061 29/16 Q1017

VFR

28°C / 16°C

[أكثر]
رياح 30º variable 340º to 060º 5kt
مجال رؤية 9700m
حالة الطقس -
غيوم Few Clouds 6100ft
الضغط 1018
تغيير -
خام LZZI 191400Z 03005KT 340V060 9999 FEW061 28/16 Q1018

VFR

28°C / 17°C

[أكثر]
رياح 60º variable 360º to 090º 7kt
مجال رؤية 9700m
حالة الطقس -
غيوم Few Clouds 6100ft
الضغط 1018
تغيير -
خام LZZI 191330Z 06007KT 360V090 9999 FEW061 28/17 Q1018

VFR

28°C / 15°C

[أكثر]
رياح 40º variable 010º to 090º 4kt
مجال رؤية 9700m
حالة الطقس -
غيوم Few Clouds 6100ft
الضغط 1018
تغيير -
خام LZZI 191300Z 04004KT 010V090 9999 FEW061 28/15 Q1018

VFR

28°C / 16°C

[أكثر]
رياح 50º variable 020º to 090º 5kt
مجال رؤية 9700m
حالة الطقس -
غيوم Few Clouds 6000ft
الضغط 1019
تغيير -
خام LZZI 191230Z 05005KT 020V090 9999 FEW060 28/16 Q1019

VFR

28°C / 15°C

[أكثر]
رياح 50º variable 020º to 120º 5kt
مجال رؤية 9700m
حالة الطقس -
غيوم Few Clouds 5800ft
الضغط 1019
تغيير -
خام LZZI 191200Z 05005KT 020V120 9999 FEW058 28/15 Q1019

VFR

28°C / 15°C

[أكثر]
رياح 50º variable 020º to 090º 6kt
مجال رؤية 9700m
حالة الطقس -
غيوم Scattered Clouds 5200ft
الضغط 1019
تغيير -
خام LZZI 191130Z 05006KT 020V090 9999 SCT052 28/15 Q1019

VFR

28°C / 14°C

[أكثر]
رياح 40º variable 350º to 070º 5kt
مجال رؤية 9700m
حالة الطقس -
غيوم Scattered Clouds 4600ft
الضغط 1019
تغيير -
خام LZZI 191100Z 04005KT 350V070 9999 SCT046 28/14 Q1019

VFR

28°C / 16°C

[أكثر]
رياح 90º variable 030º to 190º 3kt
مجال رؤية 9700m
حالة الطقس -
غيوم Few Clouds 4100ft
الضغط 1020
تغيير -
خام LZZI 191030Z 09003KT 030V190 9999 FEW041 28/16 Q1020

VFR

27°C / 16°C

[أكثر]
رياح 4kt
مجال رؤية 9700m
حالة الطقس -
غيوم Few Clouds 4000ft
الضغط 1020
تغيير -
خام LZZI 191000Z VRB04KT 9999 FEW040 27/16 Q1020

VFR

27°C / 15°C

[أكثر]
رياح 30º variable 320º to 060º 5kt
مجال رؤية 9700m
حالة الطقس -
غيوم Few Clouds 3700ft
الضغط 1020
تغيير -
خام LZZI 190930Z 03005KT 320V060 9999 FEW037 27/15 Q1020

VFR

26°C / 15°C

[أكثر]
رياح 50º variable 330º to 120º 4kt
مجال رؤية 9700m
حالة الطقس -
غيوم Few Clouds 3600ft
الضغط 1020
تغيير -
خام LZZI 190900Z 05004KT 330V120 9999 FEW036 26/15 Q1020

VFR

26°C / 16°C

[أكثر]
رياح 50º variable 010º to 120º 5kt
مجال رؤية 9700m
حالة الطقس -
غيوم Few Clouds 3300ft
الضغط 1020
تغيير -
خام LZZI 190830Z 05005KT 010V120 9999 FEW033 26/16 Q1020

VFR

25°C / 16°C

[أكثر]
رياح 60º 6kt
مجال رؤية 9700m
حالة الطقس -
غيوم Few Clouds 3300ft
الضغط 1021
تغيير -
خام LZZI 190800Z 06006KT 9999 FEW033 25/16 Q1021

VFR

24°C / 16°C

[أكثر]
رياح 80º variable 030º to 120º 4kt
مجال رؤية 9700m
حالة الطقس -
غيوم Few Clouds 3200ft
الضغط 1021
تغيير -
خام LZZI 190730Z 08004KT 030V120 9999 FEW032 24/16 Q1021

VFR

24°C / 16°C

[أكثر]
رياح 110º variable 050º to 140º 4kt
مجال رؤية 9700m
حالة الطقس -
غيوم Clouds and Visibility OK
الضغط 1021
تغيير -
خام LZZI 190700Z 11004KT 050V140 CAVOK 24/16 Q1021

VFR

23°C / 16°C

[أكثر]
رياح 2kt
مجال رؤية 9700m
حالة الطقس -
غيوم Clouds and Visibility OK
الضغط 1021
تغيير -
خام LZZI 190630Z VRB02KT CAVOK 23/16 Q1021

VFR

20°C / 16°C

[أكثر]
رياح 1kt
مجال رؤية 9700m
حالة الطقس -
غيوم Clouds and Visibility OK
الضغط 1021
تغيير -
خام LZZI 190530Z VRB01KT CAVOK 20/16 Q1021

VFR

19°C / 15°C

[أكثر]
رياح 1kt
مجال رؤية 9700m
حالة الطقس -
غيوم Clouds and Visibility OK
الضغط 1021
تغيير -
خام LZZI 190500Z VRB01KT CAVOK 19/15 Q1021

انقر لHvozdnica (LZZI)

From till


From till Wind 40º 5kt. Visibility 9700m. Nil Significant Cloud.

خام: TAF LZZI 191415Z 1915/2000 04005KT CAVOK

رادار وهطول الأمطار التنبؤ الآني لHvozdnica

رذاذ
ضوء
معتدل
ثقيل
ثقيل جدا
وابل

مؤشر المكان يشير الى Hvozdnica. تُظهر هذه الرسوم المتحركة رادار هطول الأمطار للنطاق الزمني المحدد ، بالإضافة إلى توقعات ٪ 1 $ dh . تشير الصلبان البرتقالية إلى البرق. البيانات مقدمة من nowcast.de (متوفرة في الولايات المتحدة الأمريكية وأوروبا وأستراليا). رذاذ أو تساقط ثلوج خفيف قد يكون غير مرئي للرادار. كثافة هطول الأمطار لها رموز لونية تتراوح من الفيروز إلى الأحمر.

صور الأقمار الصناعية الملتقطة و الأمطار حالياً لHvozdnica, سلوفاكيا

المؤشر يدل على موقع Hvozdnica. [أكثر]

تجمع صورة الأقمار الصناعية في الوقت الفعلي بين الضوء المرئي أثناء النهار والأشعة تحت الحمراء أثناء الليل. لا تبدو الصورة مظلمة ليلاً، لأن الأشعة تحت الحمراء يمكنها الكشف عن الاختلافات في درجة الحرارة. لسوء الحظ ، يصعب التمييز بين السحب المنخفضة والضباب ودرجات حرارة الأرض ، وبالتالي يمكن أن تكون الصور غير مرئية تقريبًا أثناء الليل. يتم تحديث صور الأقمار الصناعية Meteosat الخاصة بأوروبا في الوقت الفعلي كل 5 دقائق، بينما يتم تحديث صور GOES-16 / GOES-17 (أمريكا الشمالية والجنوبية) و هيماواري (آسيا) كل 10 دقائق.

يقدر هطول الأمطار من الرادار والأقمار الصناعية. تقديرات هطول الأمطار من الأقمار الصناعية أقل دقة في الليل منها أثناء النهار.

© 2024 meteoblue, NOAA Satellites GOES-16 and EUMETSAT. بيانات البرق مقدمة من nowcast.

العودة الى الأعلى
×
مرحبًا ،
يبدو أنك تستخدم مانع الإعلانات.

يُعد الإعلان أمرًا ضروريًا للحفاظ على موقعنا المجاني بتفاصيل ودقة فريدة.

يُرجى إضافة www.meteoblue.com إلى القائمة البيضاء في أداة منع الإعلانات أو التفكير في شراء أحد منتجاتنا:

لديك اشتراك بالفعل؟
ثم يرجى تسجيل الدخول .